This is the latest recevied weather packets stored in our database for station/object SV8FES. If no packets are shown the sender has not sent any weather packets the latest 10 day(s).
| Time | Temp. | Humidity | Pressure | Rain* | Wind** | Luminosity | Snow |
|---|---|---|---|---|---|---|---|
| 1787672043 | 28.89° C | 63% | 1012.3 hPa | 0 mm | - | 213 W/m² | - |
| 1787671983 | 28.89° C | 63% | 1012.3 hPa | 0 mm | - | 216 W/m² | - |
| 1787671925 | 28.89° C | 64% | 1012.3 hPa | 0 mm | - | 220 W/m² | - |
| 1787671863 | 28.89° C | 64% | 1012.3 hPa | 0 mm | - | 221 W/m² | - |
| 1787671804 | 28.89° C | 64% | 1012.2 hPa | 0 mm | - | 229 W/m² | - |
| 1787671744 | 28.89° C | 64% | 1012.2 hPa | 0 mm | - | 232 W/m² | - |
| 1787671684 | 28.89° C | 64% | 1012.3 hPa | 0 mm | - | 236 W/m² | - |
| 1787671624 | 28.89° C | 64% | 1012.3 hPa | 0 mm | - | 239 W/m² | - |
| 1787671562 | 28.89° C | 64% | 1012.2 hPa | 0 mm | - | 243 W/m² | - |
| 1787671504 | 28.89° C | 64% | 1012.2 hPa | 0 mm | - | 246 W/m² | - |
| 1787671443 | 28.89° C | 63% | 1012.1 hPa | 0 mm | - | 253 W/m² | - |
| 1787671382 | 28.89° C | 63% | 1012.4 hPa | 0 mm | - | 253 W/m² | - |
| 1787671323 | 28.89° C | 63% | 1012.3 hPa | 0 mm | - | 257 W/m² | - |
| 1787671262 | 28.89° C | 63% | 1012.1 hPa | 0 mm | - | 260 W/m² | - |
| 1787671205 | 28.89° C | 63% | 1012.2 hPa | 0 mm | - | 264 W/m² | - |
| 1787671145 | 28.89° C | 63% | 1012.2 hPa | 0 mm | - | 265 W/m² | - |
| 1787671082 | 28.89° C | 63% | 1012.1 hPa | 0 mm | - | 272 W/m² | - |
| 1787671022 | 28.89° C | 62% | 1012.2 hPa | 0 mm | - | 274 W/m² | - |
| 1787670963 | 29.44° C | 63% | 1012.2 hPa | 0 mm | - | 278 W/m² | - |
| 1787670902 | 29.44° C | 62% | 1012.2 hPa | 0 mm | - | 281 W/m² | - |
| 1787670844 | 29.44° C | 62% | 1012.2 hPa | 0 mm | - | 285 W/m² | - |
| 1787670782 | 29.44° C | 62% | 1012.2 hPa | 0 mm | - | 287 W/m² | - |
| 1787670724 | 29.44° C | 62% | 1012.2 hPa | 0 mm | - | 292 W/m² | - |
| 1787670666 | 29.44° C | 62% | 1012.1 hPa | 0 mm | - | 294 W/m² | - |
| 1787670603 | 29.44° C | 62% | 1012.2 hPa | 0 mm | - | 297 W/m² | - |
* Rain latest hour (hover to see other rain measurements)
** Current wind speed in m/s (hover to see current wind gust speed)